Time;durP1;ratioP1;P1;durP2;ratioP2;P2;SDS_P1;SDS_P2;PMS_P1;PMS_P2;Temp;Humidity;BMP_temperature;BMP_pressure;BME280_temperature;BME280_humidity;BME280_pressure;Samples;Min_cycle;Max_cycle;Signal;HPM_P1;HPM_P2
2021/07/07 03:56:45;;;;;;;;;;;;;;;;;;;;;
2021/07/07 04:00:28;;;;;;;;;;;;;;;;;;;;;
2021/07/07 04:03:44;;;;;;;;;;;;;;;;;;;;;
2021/07/07 04:10:31;;;;;;;;;;;;;;;;;;;;;
2021/07/07 04:23:10;;;;;;;;;;;;;;;;;;;;;
2021/07/07 05:48:29;;;;;;;;;;;;;;;;;;;;;
2021/07/07 05:52:20;;;;;;;;;;;;;;;;;;;;;
2021/07/07 06:02:58;;;;;;;;;;;;;;;;;;;;;
2021/07/07 06:09:56;;;;;;;;;7.00;5.33;;;;;18.40;59.14;101083.34;4561057;31;45804;-92
2021/07/07 08:40:05;;;;;;;;;;;;;;;;;;;;;
2021/07/07 08:42:59;;;;;;;;;4.00;4.00;;;;;20.83;53.30;101189.41;4817958;23;66900;-90
2021/07/07 08:45:32;;;;;;;;;5.67;4.67;;;;;20.86;53.57;101165.28;4903626;29;45235;-91
2021/07/07 08:48:12;;;;;;;;;7.00;5.67;;;;;21.00;52.96;101182.91;4977510;23;45867;-91
2021/07/07 08:51:07;;;;;;;;;;;;;;;;;;;;;
2021/07/07 08:53:51;;;;;;;;;5.00;5.00;;;;;21.38;52.28;101191.06;4923185;29;67936;-91
2021/07/07 08:56:40;;;;;;;;;5.00;3.00;;;;;21.35;51.65;101165.28;4925306;29;44825;-91
2021/07/07 08:59:22;;;;;;;;;4.00;3.33;;;;;21.44;51.85;101174.00;4923507;29;45487;-90
2021/07/07 09:02:30;;;;;;;;;3.00;3.00;;;;;21.53;51.91;101181.84;4923259;29;45158;-89
2021/07/07 09:08:08;;;;;;;;;4.00;4.00;;;;;21.79;50.95;101176.81;5102924;23;44859;-91
2021/07/07 09:10:50;;;;;;;;;;;;;;;;;;;;;
2021/07/07 09:13:38;;;;;;;;;9.00;6.67;;;;;22.19;49.80;101193.75;4846558;29;44594;-91
2021/07/07 09:19:27;;;;;;;;;;;;;;;;;;;;;
2021/07/07 09:29:34;;;;;;;;;6.00;6.00;;;;;23.16;48.71;101214.56;4757505;30;44857;-93
2021/07/07 09:33:07;;;;;;;;;;;;;;;;;;;;;
2021/07/07 09:36:30;;;;;;;;;;;;;;;;;;;;;
2021/07/07 09:39:48;;;;;;;;;;;;;;;;;;;;;
2021/07/07 09:45:40;;;;;;;;;;;;;;;;;;;;;
2021/07/07 09:48:42;;;;;;;;;;;;;;;;;;;;;
2021/07/07 09:51:38;;;;;;;;;;;;;;;;;;;;;
2021/07/07 16:56:52;;;;;;;;;3.00;3.00;;;;;23.24;44.05;101267.06;5595655;23;47284;-93
2021/07/07 16:59:17;;;;;;;;;4.67;3.33;;;;;23.11;45.08;101253.13;4886864;29;46823;-87
2021/07/07 17:01:43;;;;;;;;;3.00;3.00;;;;;23.21;44.39;101277.88;4885712;29;45755;-84
2021/07/07 17:04:08;;;;;;;;;3.00;3.00;;;;;23.20;44.81;101278.81;4902946;29;45245;-83
2021/07/07 17:06:34;;;;;;;;;3.00;3.00;;;;;23.18;44.18;101279.78;4902467;29;45385;-84
2021/07/07 17:08:59;;;;;;;;;3.33;2.00;;;;;23.13;44.62;101274.53;4899933;29;46110;-83
2021/07/07 17:11:25;;;;;;;;;4.00;3.00;;;;;23.13;44.79;101274.53;4885651;29;45429;-85
2021/07/07 17:13:50;;;;;;;;;3.00;3.00;;;;;23.11;44.71;101273.69;4902468;29;45792;-83
2021/07/07 17:16:15;;;;;;;;;4.00;4.00;;;;;23.09;44.27;101268.38;4902786;29;45231;-83
2021/07/07 17:18:41;;;;;;;;;4.00;3.00;;;;;23.07;44.45;101275.56;4902453;29;45422;-83
2021/07/07 17:21:07;;;;;;;;;4.00;4.00;;;;;22.97;44.20;101272.22;4902998;29;45238;-83
2021/07/07 17:23:34;;;;;;;;;3.00;2.00;;;;;23.00;43.98;101277.53;4902573;29;45400;-82
2021/07/07 17:26:04;;;;;;;;;3.00;3.00;;;;;22.99;43.79;101280.25;4902609;29;45343;-83
2021/07/07 17:28:30;;;;;;;;;3.00;2.00;;;;;22.96;43.77;101283.91;4902195;29;46232;-82
2021/07/07 17:30:56;;;;;;;;;3.00;3.00;;;;;22.97;43.32;101285.63;4885592;29;45279;-82
2021/07/07 17:33:21;;;;;;;;;3.00;3.00;;;;;22.95;44.22;101290.16;4902467;29;45262;-83
2021/07/07 17:35:46;;;;;;;;;4.00;3.67;;;;;22.97;43.40;101296.38;4902667;29;45208;-83
2021/07/07 17:38:14;;;;;;;;;2.00;2.00;;;;;22.93;42.83;101291.16;4890933;29;45368;-82
2021/07/07 17:40:39;;;;;;;;;2.00;2.00;;;;;22.90;42.21;101278.69;4882623;29;45390;-83
2021/07/07 17:43:05;;;;;;;;;3.67;3.67;;;;;22.88;42.38;101292.16;4882418;29;45308;-83
2021/07/07 17:45:30;;;;;;;;;2.67;2.67;;;;;22.89;41.73;101295.69;4864991;29;45442;-84
2021/07/07 17:48:03;;;;;;;;;2.00;2.00;;;;;22.87;42.01;101294.84;4882988;29;46396;-85
2021/07/07 17:50:28;;;;;;;;;3.33;2.00;;;;;22.86;41.73;101293.09;4883155;29;45515;-84
2021/07/07 17:52:54;;;;;;;;;5.00;3.00;;;;;22.83;41.63;101303.88;4866347;29;45397;-83
2021/07/07 17:55:21;;;;;;;;;3.00;3.00;;;;;22.86;41.68;101303.81;4883224;29;45455;-84
2021/07/07 17:57:47;;;;;;;;;4.00;2.33;;;;;22.86;42.26;101302.03;4882740;29;46067;-84
2021/07/07 18:00:13;;;;;;;;;3.67;2.67;;;;;22.82;41.56;101307.50;4882992;29;45245;-84
2021/07/07 18:02:39;;;;;;;;;3.00;3.00;;;;;22.86;42.07;101319.91;4882830;29;45396;-84
2021/07/07 18:05:06;;;;;;;;;2.00;1.00;;;;;22.84;41.73;101321.75;4883303;29;45351;-83
2021/07/07 18:07:32;;;;;;;;;0.00;0.00;;;;;22.83;42.03;101318.16;4865973;29;46080;-82
2021/07/07 18:09:57;;;;;;;;;2.00;2.00;;;;;22.85;41.40;101328.84;4883034;29;45268;-84
2021/07/07 18:12:25;;;;;;;;;1.67;1.67;;;;;22.82;41.20;101328.94;4883027;29;45812;-84
2021/07/07 18:14:50;;;;;;;;;3.33;2.67;;;;;22.79;40.25;101324.53;4882979;29;45326;-84
2021/07/07 18:17:16;;;;;;;;;3.00;1.00;;;;;22.75;41.49;101329.09;4882766;29;45434;-84
2021/07/07 18:19:41;;;;;;;;;2.33;2.33;;;;;22.77;41.18;101343.31;4882604;29;45328;-83
2021/07/07 18:22:07;;;;;;;;;3.00;1.00;;;;;22.67;40.90;101325.72;4866052;29;45492;-83
2021/07/07 18:24:32;;;;;;;;;1.67;1.67;;;;;22.70;40.70;101335.44;4883017;29;45242;-84
2021/07/07 18:26:58;;;;;;;;;3.00;1.33;;;;;22.66;40.65;101345.38;4882778;29;45458;-83
2021/07/07 18:29:23;;;;;;;;;4.00;2.00;;;;;22.68;39.81;101351.56;4882764;29;45252;-83
2021/07/07 18:31:49;;;;;;;;;2.00;2.00;;;;;22.67;39.72;101357.88;4865643;29;45341;-83
2021/07/07 18:34:14;;;;;;;;;2.00;2.00;;;;;22.66;40.18;101356.97;4882558;29;45368;-84
2021/07/07 18:36:40;;;;;;;;;2.00;2.00;;;;;22.65;39.97;101351.63;4882459;29;45898;-84
2021/07/07 18:39:05;;;;;;;;;2.67;2.67;;;;;22.65;40.57;101351.63;4882585;29;45281;-83
2021/07/07 18:41:30;;;;;;;;;1.00;1.00;;;;;22.65;41.47;101365.88;4882794;29;45775;-84
2021/07/07 18:43:56;;;;;;;;;5.67;2.00;;;;;22.62;40.78;101362.41;4882705;29;45350;-84
2021/07/07 18:46:22;;;;;;;;;2.67;2.00;;;;;22.58;39.56;101356.25;4882230;29;46173;-84
2021/07/07 18:48:48;;;;;;;;;3.00;2.00;;;;;22.60;40.70;101358.88;4882266;29;45393;-83
2021/07/07 18:51:13;;;;;;;;;1.33;1.33;;;;;22.57;40.19;101359.81;4882245;29;45353;-83
2021/07/07 18:53:38;;;;;;;;;2.00;2.00;;;;;22.52;39.59;101359.97;4882844;29;45375;-84
2021/07/07 18:56:04;;;;;;;;;2.00;2.00;;;;;22.52;39.95;101370.69;4882317;29;46069;-84
2021/07/07 18:58:30;;;;;;;;;3.00;2.00;;;;;22.49;39.68;101361.81;4882411;29;45341;-84
2021/07/07 19:00:55;;;;;;;;;2.00;2.00;;;;;22.46;39.42;101357.41;4882349;29;45446;-84
2021/07/07 19:03:21;;;;;;;;;1.00;1.00;;;;;22.42;38.75;101358.41;4882521;29;45304;-85
2021/07/07 19:05:47;;;;;;;;;1.00;1.00;;;;;22.40;39.39;101357.56;4882126;29;45328;-84
2021/07/07 19:08:15;;;;;;;;;2.00;2.00;;;;;22.41;39.57;101370.03;4882189;29;45210;-84
2021/07/07 19:10:41;;;;;;;;;2.00;2.00;;;;;22.39;39.25;101367.38;4882221;29;45181;-85
2021/07/07 19:13:06;;;;;;;;;2.00;2.00;;;;;22.40;39.71;101365.59;4882287;29;45253;-85
2021/07/07 19:15:32;;;;;;;;;2.00;2.00;;;;;22.37;39.67;101360.28;4865210;29;45377;-84
2021/07/07 19:17:57;;;;;;;;;1.67;1.67;;;;;22.32;40.14;101358.59;4882081;29;45261;-84
2021/07/07 19:20:26;;;;;;;;;5.33;1.67;;;;;22.30;38.84;101363.09;4881887;29;45311;-84
2021/07/07 19:22:52;;;;;;;;;4.00;2.67;;;;;22.29;39.94;101363.16;4882236;29;45417;-84
2021/07/07 19:25:18;;;;;;;;;1.67;1.67;;;;;22.31;39.44;101364.00;4882003;29;46201;-84
2021/07/07 19:27:46;;;;;;;;;2.67;1.67;;;;;22.30;40.06;101362.22;4864847;29;45249;-84
2021/07/07 19:30:13;;;;;;;;;3.33;3.33;;;;;22.30;39.47;101362.22;4883356;29;45269;-85
2021/07/07 19:32:39;;;;;;;;;18.00;15.00;;;;;22.27;40.33;101359.63;4885313;29;45435;-84
2021/07/07 19:35:06;;;;;;;;;59.25;43.75;;;;;22.29;40.55;101368.50;4884822;29;46116;-84
2021/07/07 19:37:32;;;;;;;;;62.50;48.00;;;;;22.26;40.12;101369.44;4884919;29;45349;-84
2021/07/07 19:40:09;;;;;;;;;47.25;37.75;;;;;22.22;39.85;101362.41;4898521;29;45423;-92
2021/07/07 19:42:43;;;;;;;;;39.00;32.25;;;;;22.18;40.72;101374.97;4905391;29;45356;-91
2021/07/07 19:45:11;;;;;;;;;13.33;12.00;;;;;22.12;40.75;101366.19;4889443;29;46946;-92
2021/07/07 19:47:37;;;;;;;;;10.00;9.00;;;;;22.16;40.92;101378.59;4887806;29;45497;-93
2021/07/07 19:50:06;;;;;;;;;6.00;5.33;;;;;22.07;41.15;101372.53;4885542;29;45184;-90
2021/07/07 19:52:31;;;;;;;;;8.00;4.00;;;;;22.05;41.49;101379.69;4880112;29;45931;-89
2021/07/07 19:54:57;;;;;;;;;5.33;3.67;;;;;22.07;41.04;101390.38;4873167;29;48333;-89
2021/07/07 19:57:22;;;;;;;;;5.00;3.33;;;;;21.95;41.42;101373.66;4869752;29;45517;-90
2021/07/07 19:59:50;;;;;;;;;3.67;3.00;;;;;21.92;41.73;101379.06;4885623;29;45403;-90
2021/07/07 20:02:26;;;;;;;;;;;;;;;;;;;;;
2021/07/07 20:05:29;;;;;;;;;5.00;5.00;;;;;21.98;41.34;101404.81;4885315;29;74232;-91
2021/07/07 20:07:55;;;;;;;;;5.33;3.33;;;;;21.89;41.74;101391.63;4876141;29;45302;-90
2021/07/07 20:10:22;;;;;;;;;3.00;3.00;;;;;21.91;41.40;101403.19;4904155;29;45278;-89
2021/07/07 20:12:52;;;;;;;;;5.67;3.33;;;;;21.77;41.88;101392.69;4887269;29;45897;-89
2021/07/07 20:15:23;;;;;;;;;4.00;3.00;;;;;21.84;42.13;101411.34;4886863;29;47110;-91
2021/07/07 20:17:51;;;;;;;;;3.00;3.00;;;;;21.74;42.31;101404.38;4887116;29;45494;-91
2021/07/07 20:20:25;;;;;;;;;4.00;4.00;;;;;21.72;42.36;101401.69;4891534;29;45441;-91
2021/07/07 20:22:51;;;;;;;;;4.00;3.00;;;;;21.72;42.69;101416.91;4910427;29;45328;-90
2021/07/07 20:25:17;;;;;;;;;4.00;4.00;;;;;21.67;42.75;101414.28;4908718;29;46910;-90
2021/07/07 20:27:43;;;;;;;;;6.67;4.67;;;;;21.70;42.75;101424.06;4909930;28;45159;-91
2021/07/07 20:30:10;;;;;;;;;4.00;3.00;;;;;21.63;42.47;101421.50;4913804;28;44787;-91
2021/07/07 20:32:36;;;;;;;;;3.67;3.67;;;;;21.65;41.83;101434.84;4914098;28;44757;-91
2021/07/07 20:35:02;;;;;;;;;6.00;4.00;;;;;21.56;42.43;101432.31;4919440;28;46506;-92
2021/07/07 20:37:27;;;;;;;;;4.33;3.00;;;;;21.53;42.95;101433.28;4895350;29;45411;-90
2021/07/07 20:39:53;;;;;;;;;3.00;2.00;;;;;21.62;42.51;101458.97;4914726;29;45354;-90
2021/07/07 20:42:19;;;;;;;;;5.33;3.67;;;;;21.50;42.55;101444.00;4891975;29;45540;-90
2021/07/07 20:44:45;;;;;;;;;6.33;4.33;;;;;21.47;43.08;101439.59;4887424;29;48538;-90
2021/07/07 20:47:11;;;;;;;;;5.00;5.00;;;;;21.49;42.83;101459.16;4887230;29;45394;-91
2021/07/07 20:49:36;;;;;;;;;5.00;3.33;;;;;21.52;43.29;101466.28;4890509;29;45377;-90
2021/07/07 20:52:02;;;;;;;;;6.00;3.67;;;;;21.50;42.53;101465.41;4891571;29;45396;-92
2021/07/07 20:54:28;;;;;;;;;4.67;4.67;;;;;21.42;42.54;101454.84;4892081;29;47149;-92
2021/07/07 20:56:56;;;;;;;;;6.00;3.67;;;;;21.38;42.75;101455.81;4887034;29;45481;-91
2021/07/07 20:59:22;;;;;;;;;5.00;3.33;;;;;21.25;42.78;101433.72;4902916;29;45283;-92
2021/07/07 21:01:50;;;;;;;;;4.00;3.33;;;;;21.35;42.91;101456.75;4903848;29;45485;-92
2021/07/07 21:04:15;;;;;;;;;5.00;3.33;;;;;21.40;42.56;101478.97;4886310;29;47236;-92
2021/07/07 21:06:41;;;;;;;;;5.00;4.00;;;;;21.29;43.19;101459.50;4878794;29;45520;-90
2021/07/07 21:09:06;;;;;;;;;5.00;5.00;;;;;21.19;43.42;101445.41;4904006;29;45511;-92
2021/07/07 21:11:35;;;;;;;;;3.67;3.67;;;;;21.28;43.27;101465.75;4904444;29;45332;-93
2021/07/07 21:14:00;;;;;;;;;5.67;4.00;;;;;21.32;43.48;101479.97;4887180;29;47466;-91
2021/07/07 21:16:26;;;;;;;;;4.33;3.00;;;;;21.17;43.59;101457.94;4888321;29;45352;-91
2021/07/07 21:18:51;;;;;;;;;4.67;3.33;;;;;21.16;43.67;101456.16;4891468;29;45203;-92
2021/07/07 21:21:19;;;;;;;;;4.00;4.00;;;;;21.11;43.25;101461.56;4889621;29;45484;-90
2021/07/07 21:23:45;;;;;;;;;3.33;3.33;;;;;21.11;43.31;101469.56;4890367;29;46776;-90
2021/07/07 21:26:11;;;;;;;;;5.67;4.00;;;;;21.16;43.58;101478.41;4887424;29;46163;-89
2021/07/07 21:28:37;;;;;;;;;5.33;5.33;;;;;21.17;43.54;101495.34;4885367;29;45459;-91
2021/07/07 21:31:03;;;;;;;;;6.33;4.00;;;;;21.15;44.05;101489.16;4903192;29;45349;-91
2021/07/07 21:33:28;;;;;;;;;5.00;5.00;;;;;21.07;44.00;101483.03;4903325;29;46417;-92
2021/07/07 21:35:54;;;;;;;;;5.00;5.00;;;;;21.14;43.61;101496.28;4899340;29;45517;-92
2021/07/07 21:38:19;;;;;;;;;8.33;5.33;;;;;21.00;43.89;101476.88;4885964;29;45458;-92
2021/07/07 21:40:45;;;;;;;;;7.00;4.00;;;;;21.06;44.00;101490.16;4888234;29;45248;-91
2021/07/07 21:43:13;;;;;;;;;6.00;5.00;;;;;20.94;44.63;101476.03;4906553;29;45503;-92
2021/07/07 21:45:38;;;;;;;;;6.00;5.00;;;;;21.04;43.88;101497.31;4888253;29;45323;-91
2021/07/07 21:48:05;;;;;;;;;6.00;4.00;;;;;20.94;44.26;101484.03;4902220;29;45469;-90
2021/07/07 21:50:59;;;;;;;;;8.00;4.33;;;;;20.94;44.38;101497.41;4902535;29;45511;-91
2021/07/07 21:53:26;;;;;;;;;4.00;3.67;;;;;20.91;44.41;101494.78;4884263;29;48034;-92
2021/07/07 21:55:53;;;;;;;;;5.33;3.00;;;;;20.96;43.92;101507.19;4885048;29;45785;-91
2021/07/07 21:58:19;;;;;;;;;5.00;5.00;;;;;20.81;43.91;101488.66;4842723;29;1257422;-91
